createdAt,value
2019-01-15T06:44:31.243Z,89.62
2019-01-15T06:45:31.232Z,89.62
2019-01-15T06:46:31.227Z,88.54
2019-01-15T06:47:31.205Z,88.75
2019-01-15T06:48:31.187Z,88.54
2019-01-15T06:49:31.170Z,88.75
2019-01-15T06:50:31.167Z,88.64
2019-01-15T06:51:31.164Z,88.81
2019-01-15T06:52:31.145Z,88.75
2019-01-15T06:53:31.155Z,88.50
2019-01-15T06:54:31.119Z,88.81
2019-01-15T06:55:31.169Z,88.81
2019-01-15T06:56:31.147Z,87.98
2019-01-15T06:57:31.116Z,87.88
2019-01-15T06:58:31.083Z,88.50
2019-01-15T06:59:31.144Z,88.81
2019-01-15T07:00:31.071Z,88.61
2019-01-15T07:01:31.060Z,87.46
2019-01-15T07:02:31.039Z,87.36
2019-01-15T07:03:31.027Z,87.98
2019-01-15T07:04:31.026Z,88.61
2019-01-15T07:05:30.999Z,88.50
2019-01-15T07:06:31.006Z,87.78
2019-01-15T07:07:31.016Z,88.09
2019-01-15T07:08:30.973Z,87.26
2019-01-15T07:09:30.992Z,87.67
2019-01-15T07:10:30.951Z,88.15
2019-01-15T07:11:30.934Z,87.67
2019-01-15T07:12:30.938Z,87.26
2019-01-15T07:13:30.917Z,87.32
2019-01-15T07:14:30.914Z,86.74
2019-01-15T07:15:30.903Z,87.15
2019-01-15T07:16:30.966Z,86.90
2019-01-15T07:17:30.925Z,87.42
2019-01-15T07:18:30.903Z,87.32
2019-01-15T07:19:33.333Z,87.53
2019-01-15T07:20:30.895Z,87.01
2019-01-15T07:21:30.974Z,88.15
2019-01-15T07:22:30.880Z,87.63
2019-01-15T07:23:30.821Z,87.01
2019-01-15T07:24:30.876Z,87.01
2019-01-15T07:25:30.821Z,87.32
2019-01-15T07:26:30.801Z,87.11
2019-01-15T07:27:30.844Z,87.32
2019-01-15T07:28:30.812Z,87.21
2019-01-15T07:29:30.828Z,87.32
2019-01-15T07:30:30.815Z,87.73
2019-01-15T07:31:30.797Z,87.36
2019-01-15T07:32:30.771Z,87.32
2019-01-15T07:33:30.773Z,87.73
2019-01-15T07:34:30.749Z,88.15
2019-01-15T07:35:30.704Z,87.84
2019-01-15T07:36:30.676Z,87.11
2019-01-15T07:37:30.705Z,87.42
2019-01-15T07:38:30.645Z,87.63
2019-01-15T07:39:30.754Z,87.28
2019-01-15T07:40:30.676Z,86.76
2019-01-15T07:41:30.657Z,86.80
2019-01-15T07:42:30.702Z,86.80
2019-01-15T07:43:30.679Z,86.96
2019-01-15T07:44:30.623Z,87.59
2019-01-15T07:45:30.647Z,87.69
2019-01-15T07:46:30.617Z,86.96
2019-01-15T07:47:30.633Z,86.96
2019-01-15T07:48:30.608Z,87.17
2019-01-15T07:49:30.586Z,87.28
2019-01-15T07:50:30.591Z,86.65
2019-01-15T07:51:30.526Z,87.07
2019-01-15T07:52:30.543Z,86.76
2019-01-15T07:53:30.572Z,86.45
2019-01-15T07:54:30.528Z,87.28
2019-01-15T07:55:30.663Z,86.86
2019-01-15T07:56:30.523Z,87.28
2019-01-15T07:57:30.451Z,86.76
2019-01-15T07:58:30.426Z,86.76
2019-01-15T07:59:30.533Z,86.41
2019-01-15T08:00:30.422Z,87.13
2019-01-15T08:01:30.548Z,86.41
2019-01-15T08:02:30.437Z,86.62
2019-01-15T08:03:30.414Z,85.58
2019-01-15T08:04:30.450Z,85.02
2019-01-15T08:05:31.231Z,85.68
2019-01-15T08:06:30.378Z,85.68
2019-01-15T08:07:30.332Z,86.82
2019-01-15T08:08:30.404Z,86.62
2019-01-15T08:09:30.322Z,86.41
2019-01-15T08:10:30.343Z,85.99
2019-01-15T08:11:30.309Z,86.88
2019-01-15T08:12:30.364Z,86.68
2019-01-15T08:13:30.302Z,85.75
2019-01-15T08:14:30.307Z,86.78
2019-01-15T08:15:30.309Z,86.68
2019-01-15T08:16:30.314Z,86.78
2019-01-15T08:17:30.229Z,85.85
2019-01-15T08:18:30.245Z,86.06
2019-01-15T08:19:30.225Z,86.06
2019-01-15T08:20:30.189Z,85.96
2019-01-15T08:21:30.180Z,85.91
2019-01-15T08:22:30.163Z,85.96
2019-01-15T08:23:30.146Z,85.50
2019-01-15T08:24:30.158Z,86.64
2019-01-15T08:25:30.182Z,86.74
2019-01-15T08:26:30.161Z,85.71
2019-01-15T08:27:30.138Z,85.29
2019-01-15T08:28:30.101Z,85.40
2019-01-15T08:29:30.093Z,85.40
2019-01-15T08:30:30.111Z,86.02
2019-01-15T08:31:30.077Z,85.81
2019-01-15T08:32:30.071Z,85.91
2019-01-15T08:33:30.096Z,85.91
2019-01-15T08:34:30.037Z,85.81
2019-01-15T08:35:30.034Z,86.09
2019-01-15T08:36:30.012Z,86.09
2019-01-15T08:37:30.017Z,85.88
2019-01-15T08:38:30.122Z,85.46
2019-01-15T08:39:54.917Z,85.15
2019-01-15T08:40:54.908Z,85.67
2019-01-15T08:41:56.095Z,84.91
2019-01-15T08:42:54.966Z,84.91
2019-01-15T08:43:54.883Z,85.52
2019-01-15T08:44:54.863Z,85.63
2019-01-15T08:45:55.478Z,84.49
2019-01-15T08:46:54.949Z,84.70
2019-01-15T08:47:54.840Z,85.11
2019-01-15T08:48:54.812Z,84.91
2019-01-15T08:49:54.797Z,84.91
2019-01-15T08:50:54.829Z,83.87
2019-01-15T08:51:54.840Z,84.70
2019-01-15T08:52:54.806Z,84.60
2019-01-15T08:53:54.804Z,84.86
2019-01-15T08:54:54.787Z,84.35
2019-01-15T08:55:54.774Z,84.35
2019-01-15T08:56:54.954Z,85.07
2019-01-15T08:57:54.774Z,84.60
2019-01-15T08:58:54.733Z,84.45
2019-01-15T08:59:54.717Z,84.55
2019-01-15T09:00:54.724Z,84.04
2019-01-15T09:01:54.661Z,84.55
2019-01-15T09:02:54.739Z,83.83
2019-01-15T09:03:56.474Z,84.25
2019-01-15T09:04:54.646Z,83.52
2019-01-15T09:05:54.671Z,83.94
2019-01-15T09:06:54.666Z,84.14
2019-01-15T09:07:54.674Z,83.52
2019-01-15T09:08:54.644Z,83.00
2019-01-15T09:09:54.670Z,82.90
2019-01-15T09:10:54.652Z,83.38
2019-01-15T09:11:54.628Z,83.17
2019-01-15T09:12:54.552Z,82.55
2019-01-15T09:13:55.618Z,83.48
2019-01-15T09:14:54.595Z,83.07
2019-01-15T09:15:54.657Z,82.97
2019-01-15T09:16:54.525Z,82.97
2019-01-15T09:17:55.382Z,83.03
2019-01-15T09:18:56.182Z,83.24
2019-01-15T09:19:54.527Z,82.65
2019-01-15T09:20:54.514Z,81.93
2019-01-15T09:21:54.500Z,81.90
2019-01-15T09:22:54.511Z,82.00
2019-01-15T09:23:54.434Z,81.48
2019-01-15T09:24:54.480Z,82.31
2019-01-15T09:25:54.422Z,81.38
2019-01-15T09:26:54.425Z,82.69
2019-01-15T09:27:54.388Z,81.24
2019-01-15T09:28:54.391Z,81.65
2019-01-15T09:29:54.412Z,81.34
2019-01-15T09:30:59.908Z,81.03
2019-01-15T09:31:54.340Z,80.82
2019-01-15T09:32:54.372Z,81.45
2019-01-15T09:33:54.393Z,81.55
2019-01-15T09:34:54.321Z,80.72
2019-01-15T09:35:54.322Z,80.31
2019-01-15T09:36:56.954Z,81.03
2019-01-15T09:37:54.279Z,80.62
2019-01-15T09:38:54.287Z,80.79
2019-01-15T09:39:54.273Z,81.10
2019-01-15T09:40:54.248Z,80.79
2019-01-15T09:41:54.293Z,80.68
2019-01-15T09:42:54.237Z,80.54
2019-01-15T09:43:54.463Z,80.44
2019-01-15T09:44:54.210Z,80.44
2019-01-15T09:45:54.258Z,79.79
2019-01-15T09:46:54.197Z,79.30
2019-01-15T09:47:54.236Z,79.93
2019-01-15T09:48:54.231Z,80.10
2019-01-15T09:49:54.186Z,79.07
2019-01-15T09:50:54.223Z,78.86
2019-01-15T09:51:55.199Z,78.86
2019-01-15T09:52:54.111Z,79.58
2019-01-15T09:53:54.102Z,79.99
2019-01-15T09:54:54.110Z,78.24
2019-01-15T09:55:54.110Z,78.34
2019-01-15T09:56:54.090Z,78.14
2019-01-15T09:57:54.065Z,78.03
2019-01-15T09:58:54.113Z,78.03
2019-01-15T09:59:54.141Z,78.00
2019-01-15T10:00:54.681Z,78.10
2019-01-15T10:01:54.018Z,78.61
2019-01-15T10:02:54.023Z,78.61
2019-01-15T10:03:55.133Z,78.10
2019-01-15T10:04:54.067Z,77.89
2019-01-15T10:05:55.761Z,78.37
2019-01-15T10:06:54.023Z,78.79
2019-01-15T10:07:53.981Z,77.14
2019-01-15T10:08:54.031Z,77.24
2019-01-15T10:09:53.949Z,78.37
2019-01-15T10:10:53.946Z,76.72
2019-01-15T10:11:53.993Z,77.65
2019-01-15T10:12:53.939Z,77.61
2019-01-15T10:13:53.961Z,77.00
2019-01-15T10:14:53.931Z,77.20
2019-01-15T10:15:54.262Z,76.69
2019-01-15T10:16:53.939Z,76.79
2019-01-15T10:17:53.920Z,76.79
2019-01-15T10:18:53.887Z,77.31
2019-01-15T10:19:54.436Z,76.48
2019-01-15T10:20:55.352Z,76.48
2019-01-15T10:21:54.992Z,77.72
2019-01-15T10:22:56.963Z,76.48
2019-01-15T10:23:53.842Z,75.56
2019-01-15T10:24:54.935Z,76.69
2019-01-15T10:25:53.848Z,76.38
2019-01-15T10:26:53.827Z,76.48
2019-01-15T10:27:53.743Z,75.35
2019-01-15T10:28:53.751Z,75.76
2019-01-15T10:29:59.117Z,75.35
2019-01-15T10:30:58.944Z,76.69
2019-01-15T10:31:53.694Z,76.28
2019-01-15T10:32:53.732Z,75.35
2019-01-15T10:33:53.681Z,75.42
2019-01-15T10:34:53.694Z,75.42
2019-01-15T10:35:53.709Z,75.32
2019-01-15T10:36:53.702Z,75.32
2019-01-15T10:37:53.682Z,75.32
2019-01-15T10:38:53.671Z,75.32
2019-01-15T10:39:53.669Z,75.93
2019-01-15T10:40:53.650Z,75.73
2019-01-15T10:41:53.679Z,75.07
2019-01-15T10:42:54.136Z,73.84
2019-01-15T10:43:53.583Z,74.05
2019-01-15T10:44:53.659Z,74.67
2019-01-15T10:45:53.578Z,74.87
2019-01-15T10:46:53.811Z,74.25
2019-01-15T10:47:53.553Z,74.56
2019-01-15T10:48:53.565Z,74.53
2019-01-15T10:49:53.574Z,74.73
2019-01-15T10:50:53.572Z,74.12
2019-01-15T10:51:53.552Z,73.40
2019-01-15T10:52:53.517Z,73.50
2019-01-15T10:53:53.517Z,73.36
2019-01-15T10:54:53.510Z,72.27
2019-01-15T10:55:53.528Z,73.19
2019-01-15T10:56:53.475Z,74.12
2019-01-15T10:57:53.459Z,74.90
2019-01-15T10:58:53.473Z,74.18
2019-01-15T10:59:53.448Z,73.36
2019-01-15T11:00:53.436Z,73.36
2019-01-15T11:01:53.372Z,71.72
2019-01-15T11:02:53.352Z,71.61
2019-01-15T11:03:53.378Z,70.89
2019-01-15T11:04:53.343Z,71.10
2019-01-15T11:05:53.321Z,71.82
2019-01-15T11:06:53.325Z,72.23
2019-01-15T11:07:53.301Z,72.54
2019-01-15T11:08:54.285Z,70.89
2019-01-15T11:09:53.276Z,70.79
2019-01-15T11:10:53.286Z,71.41
2019-01-15T11:11:53.266Z,70.97
2019-01-15T11:12:53.228Z,71.38
2019-01-15T11:13:53.220Z,69.87
2019-01-15T11:14:56.235Z,69.01
2019-01-15T11:15:53.229Z,69.15
2019-01-15T11:16:53.229Z,70.79
2019-01-15T11:17:53.247Z,69.73
2019-01-15T11:18:53.171Z,68.40
2019-01-15T11:19:53.162Z,68.60
2019-01-15T11:20:56.950Z,67.40
2019-01-15T11:21:53.151Z,68.64
2019-01-15T11:22:53.146Z,69.36
2019-01-15T11:23:53.121Z,68.09
2019-01-15T11:24:53.107Z,69.04
2019-01-15T11:25:53.106Z,68.91
2019-01-15T11:26:53.104Z,67.57
2019-01-15T11:27:53.108Z,69.12
2019-01-15T11:28:53.121Z,68.60
2019-01-15T11:29:53.087Z,69.22
2019-01-15T11:30:53.674Z,67.37
2019-01-15T11:31:53.026Z,68.81
2019-01-15T11:32:53.079Z,67.78
2019-01-15T11:33:53.015Z,67.78
2019-01-15T11:34:52.990Z,67.78
2019-01-15T11:35:53.001Z,67.68
2019-01-15T11:36:52.978Z,68.50
2019-01-15T11:37:52.972Z,67.16
2019-01-15T11:38:52.953Z,68.60
2019-01-15T11:39:53.006Z,66.96
2019-01-15T11:40:53.940Z,67.37
2019-01-15T11:41:52.928Z,68.19
2019-01-15T11:42:52.943Z,67.57
2019-01-15T11:43:52.906Z,67.68
2019-01-15T11:44:52.894Z,67.37
2019-01-15T11:45:53.235Z,66.65
2019-01-15T11:46:52.870Z,67.16
2019-01-15T11:47:52.848Z,68.60
2019-01-15T11:48:52.842Z,67.88
2019-01-15T11:49:52.839Z,66.96
2019-01-15T11:50:52.825Z,68.19
2019-01-15T11:51:52.819Z,66.14
2019-01-15T11:52:52.816Z,67.68
2019-01-15T11:53:52.788Z,67.06
2019-01-15T11:54:52.780Z,67.78
2019-01-15T11:55:52.784Z,67.68
2019-01-15T11:56:53.936Z,66.58
2019-01-15T11:57:52.775Z,68.19
2019-01-15T11:58:52.732Z,66.89
2019-01-15T11:59:52.718Z,68.23
2019-01-15T12:00:52.728Z,67.71
2019-01-15T12:01:52.716Z,66.99
2019-01-15T12:02:52.684Z,67.71
2019-01-15T12:03:52.677Z,66.99
2019-01-15T12:04:52.667Z,67.09
2019-01-15T12:05:52.658Z,67.30
2019-01-15T12:06:52.733Z,68.84
2019-01-15T12:13:59.712Z,66.68
2019-01-15T12:15:02.434Z,67.40
2019-01-15T12:15:59.620Z,68.64
2019-01-15T12:16:59.599Z,68.53
2019-01-15T12:17:59.570Z,66.79
2019-01-15T12:18:59.574Z,66.79
2019-01-15T12:19:59.536Z,68.43
2019-01-15T12:20:59.523Z,67.91
2019-01-15T12:21:59.536Z,67.71
2019-01-15T12:22:59.513Z,67.30
2019-01-15T12:23:59.619Z,68.43
2019-01-15T12:24:59.523Z,68.84
2019-01-15T12:25:59.485Z,68.94
2019-01-15T12:26:59.472Z,69.15
2019-01-15T12:27:59.451Z,67.30
2019-01-15T12:28:59.437Z,69.04
2019-01-15T12:29:59.432Z,68.94
2019-01-15T12:30:59.427Z,68.53
2019-01-15T12:31:59.407Z,68.64
2019-01-15T12:32:59.440Z,69.90
2019-01-15T12:33:59.397Z,69.04
2019-01-15T12:34:59.385Z,68.77
2019-01-15T12:35:59.360Z,68.87
2019-01-15T12:36:59.376Z,70.21
2019-01-15T12:37:59.336Z,70.00
2019-01-15T12:38:59.339Z,69.70
2019-01-15T12:39:59.327Z,69.31
2019-01-15T12:40:59.586Z,69.62
2019-01-15T12:41:59.327Z,70.21
2019-01-15T12:42:59.288Z,71.06
2019-01-15T12:43:59.316Z,70.03
2019-01-15T12:44:59.272Z,69.31
2019-01-15T12:45:59.253Z,69.73
2019-01-15T12:46:59.285Z,69.94
2019-01-15T12:47:59.277Z,71.17
2019-01-15T12:48:59.275Z,70.03
2019-01-15T12:49:59.243Z,70.45
2019-01-15T12:50:59.230Z,70.03
2019-01-15T12:51:59.198Z,70.03
2019-01-15T12:52:59.185Z,71.17
2019-01-15T12:53:59.176Z,70.96
2019-01-15T12:54:59.170Z,71.58
2019-01-15T12:55:59.146Z,71.27
2019-01-15T12:57:00.779Z,70.14
2019-01-15T12:57:59.137Z,70.24
2019-01-15T12:58:59.111Z,71.06
2019-01-15T12:59:59.168Z,71.17
2019-01-15T13:01:00.141Z,69.52
2019-01-15T13:01:59.131Z,70.75
2019-01-15T13:02:59.077Z,71.06
2019-01-15T13:03:59.070Z,69.62
2019-01-15T13:04:59.062Z,70.86
2019-01-15T13:05:59.047Z,71.06
2019-01-15T13:06:59.042Z,71.47
2019-01-15T13:07:59.025Z,71.17
2019-01-15T13:08:59.016Z,69.73
2019-01-15T13:09:58.995Z,70.14
2019-01-15T13:10:58.982Z,71.27
2019-01-15T13:12:00.908Z,70.14
2019-01-15T13:12:58.967Z,70.86
2019-01-15T13:13:58.945Z,70.96
2019-01-15T13:14:59.057Z,70.93
2019-01-15T13:15:59.716Z,70.11
2019-01-15T13:16:58.956Z,69.70
2019-01-15T13:17:58.908Z,70.14
2019-01-15T13:18:58.903Z,70.21
2019-01-15T13:19:58.891Z,70.93
2019-01-15T13:20:58.875Z,68.98
2019-01-15T13:21:58.892Z,69.31
2019-01-15T13:22:58.864Z,71.24
2019-01-15T13:23:58.848Z,70.93
2019-01-15T13:24:58.830Z,71.03
2019-01-15T13:25:58.912Z,69.31
2019-01-15T13:26:58.861Z,71.13
2019-01-15T13:27:58.796Z,71.13
2019-01-15T13:28:58.781Z,71.13
2019-01-15T13:29:58.815Z,71.24
2019-01-15T13:30:58.770Z,69.70
2019-01-15T13:31:58.771Z,69.08
2019-01-15T13:32:58.737Z,69.39
2019-01-15T13:33:58.745Z,69.79
2019-01-15T13:34:58.725Z,69.62
2019-01-15T13:35:58.725Z,71.06
2019-01-15T13:36:58.699Z,71.06
2019-01-15T13:37:58.693Z,71.27
2019-01-15T13:38:58.691Z,70.86
2019-01-15T13:39:58.679Z,71.27
2019-01-15T13:40:58.650Z,69.94
2019-01-15T13:41:58.648Z,70.07
2019-01-15T13:43:01.973Z,70.75
2019-01-15T13:43:58.612Z,71.20
2019-01-15T13:44:58.611Z,71.09
2019-01-15T13:46:00.779Z,71.71
2019-01-15T13:46:58.599Z,71.64
2019-01-15T13:47:58.639Z,71.51
2019-01-15T13:48:58.572Z,72.06
2019-01-15T13:49:58.555Z,71.96
2019-01-15T13:50:58.569Z,71.33
2019-01-15T13:51:58.566Z,72.06
2019-01-15T13:52:58.528Z,71.75
2019-01-15T13:53:58.510Z,72.06
2019-01-15T13:54:58.504Z,72.36
2019-01-15T13:55:58.495Z,71.64
2019-01-15T13:56:58.496Z,72.78
2019-01-15T13:57:58.588Z,72.19
2019-01-15T13:58:58.472Z,72.57
2019-01-15T13:59:58.448Z,72.98
2019-01-15T14:00:58.452Z,73.29
2019-01-15T14:01:58.442Z,73.95
2019-01-15T14:02:58.435Z,72.47
2019-01-15T14:03:58.535Z,73.70
2019-01-15T14:04:58.390Z,72.78
2019-01-15T14:05:58.415Z,73.74
2019-01-15T14:06:58.376Z,74.01
2019-01-15T14:07:58.361Z,73.29
2019-01-15T14:08:58.352Z,74.12
2019-01-15T14:09:58.367Z,73.43
2019-01-15T14:10:58.427Z,73.80
2019-01-15T14:11:58.326Z,73.74
2019-01-15T14:12:58.310Z,73.43
2019-01-15T14:13:58.296Z,72.81
2019-01-15T14:14:58.284Z,73.33
2019-01-15T14:15:58.279Z,74.15
2019-01-15T14:16:58.273Z,73.84
2019-01-15T14:17:58.253Z,74.56
2019-01-15T14:18:58.241Z,75.18
2019-01-15T14:19:58.240Z,73.95
2019-01-15T14:20:58.980Z,74.56
2019-01-15T14:21:58.213Z,74.70
2019-01-15T14:22:58.194Z,74.90
2019-01-15T14:23:58.206Z,74.60
2019-01-15T14:24:58.602Z,74.67
2019-01-15T14:25:58.205Z,75.21
2019-01-15T14:26:58.166Z,75.11
2019-01-15T14:27:58.148Z,75.42
2019-01-15T14:28:58.210Z,75.83
2019-01-15T14:29:58.126Z,75.62
2019-01-15T14:30:58.200Z,75.32
2019-01-15T14:31:58.102Z,74.90
2019-01-15T14:32:58.471Z,75.11
2019-01-15T14:33:58.111Z,75.42
2019-01-15T14:34:58.078Z,76.04
2019-01-15T14:35:58.056Z,74.60
2019-01-15T14:36:58.436Z,75.01
2019-01-15T14:37:58.031Z,75.93
2019-01-15T14:38:58.735Z,75.32
2019-01-15T14:39:58.024Z,75.73
2019-01-15T14:40:58.027Z,74.60
2019-01-15T14:41:57.999Z,74.80
2019-01-15T14:42:57.982Z,74.39
2019-01-15T14:43:57.975Z,75.83
2019-01-15T14:44:57.967Z,74.67
2019-01-15T14:46:00.328Z,74.70
2019-01-15T14:46:57.981Z,75.62
2019-01-15T14:47:57.932Z,76.00
2019-01-15T14:48:57.908Z,75.49
2019-01-15T14:49:57.910Z,75.01
2019-01-15T14:50:57.930Z,75.80
2019-01-15T14:51:57.879Z,74.98
2019-01-15T14:52:57.873Z,75.18
2019-01-15T14:53:57.865Z,74.98
2019-01-15T14:54:57.848Z,75.70
2019-01-15T14:55:57.875Z,74.90
2019-01-15T14:56:57.827Z,75.07
2019-01-15T14:57:57.829Z,75.53
2019-01-15T14:58:57.815Z,75.80
2019-01-15T14:59:57.802Z,74.70
2019-01-15T15:00:57.793Z,75.49
2019-01-15T15:01:57.772Z,75.93
2019-01-15T15:02:57.785Z,75.53
2019-01-15T15:03:57.764Z,75.39
2019-01-15T15:04:57.743Z,75.73
2019-01-15T15:05:57.798Z,75.73
2019-01-15T15:06:57.719Z,75.53
2019-01-15T15:07:57.707Z,75.42
2019-01-15T15:08:57.711Z,75.42
2019-01-15T15:09:57.698Z,75.53
2019-01-15T15:10:57.667Z,75.11
2019-01-15T15:11:57.739Z,74.80
2019-01-15T15:12:57.649Z,75.21
2019-01-15T15:13:57.687Z,75.62
2019-01-15T15:14:57.648Z,75.93
2019-01-15T15:16:03.594Z,74.80
2019-01-15T15:17:22.746Z,74.90
2019-01-15T15:18:23.735Z,75.53
2019-01-15T15:19:22.726Z,75.62
2019-01-15T15:20:22.714Z,75.93
2019-01-15T15:21:22.703Z,75.62
2019-01-15T15:22:22.689Z,75.53
2019-01-15T15:23:22.680Z,76.48
2019-01-15T15:24:22.680Z,76.45
2019-01-15T15:25:22.679Z,76.80
2019-01-15T15:26:22.651Z,77.58
2019-01-15T15:27:22.639Z,76.76
2019-01-15T15:28:22.628Z,76.66
2019-01-15T15:29:22.625Z,76.55
2019-01-15T15:30:22.598Z,76.25
2019-01-15T15:31:22.608Z,77.41
2019-01-15T15:32:22.744Z,77.89
2019-01-15T15:33:22.569Z,77.48
2019-01-15T15:34:22.557Z,76.90
2019-01-15T15:35:22.546Z,77.11
2019-01-15T15:36:22.550Z,77.72
2019-01-15T15:37:22.556Z,77.93
2019-01-15T15:38:22.515Z,77.72
2019-01-15T15:39:22.512Z,77.83
2019-01-15T15:40:22.565Z,77.48
2019-01-15T15:41:22.479Z,77.72
2019-01-15T15:42:22.498Z,77.93
2019-01-15T15:43:22.482Z,77.21
2019-01-15T15:44:22.443Z,78.65
2019-01-15T15:45:22.470Z,78.03
2019-01-15T15:46:22.452Z,78.34
2019-01-15T15:47:22.409Z,78.24
2019-01-15T15:48:22.462Z,77.93
2019-01-15T15:49:22.410Z,79.47
2019-01-15T15:50:22.377Z,79.27
2019-01-15T15:51:22.366Z,79.27
2019-01-15T15:52:22.351Z,80.40
2019-01-15T15:53:22.605Z,80.65
2019-01-15T15:54:22.335Z,80.92
2019-01-15T15:55:22.320Z,81.75
2019-01-15T15:56:22.324Z,81.47
2019-01-15T15:57:22.309Z,82.20
2019-01-15T15:58:22.291Z,82.50
2019-01-15T15:59:22.280Z,82.40
2019-01-15T16:00:22.265Z,82.50
2019-01-15T16:01:22.254Z,82.50
2019-01-15T16:02:22.246Z,83.33
2019-01-15T16:03:22.252Z,83.53
2019-01-15T16:04:22.246Z,82.29
2019-01-15T16:05:22.221Z,82.81
2019-01-15T16:06:22.270Z,82.81
2019-01-15T16:07:22.204Z,83.02
2019-01-15T16:08:22.179Z,82.81
2019-01-15T16:09:22.174Z,83.06
2019-01-15T16:10:22.151Z,83.16
2019-01-15T16:11:22.162Z,83.67
2019-01-15T16:12:22.132Z,83.37
2019-01-15T16:13:22.127Z,83.78
2019-01-15T16:14:32.126Z,83.67
2019-01-15T16:16:47.970Z,84.09
2019-01-15T16:17:47.033Z,83.78
2019-01-15T16:18:46.665Z,83.78
2019-01-15T16:19:46.661Z,82.44
2019-01-15T16:20:46.623Z,82.85
2019-01-15T16:21:46.657Z,82.95
2019-01-15T16:22:46.607Z,82.95
2019-01-15T16:23:46.622Z,82.75
2019-01-15T16:24:46.580Z,83.47
2019-01-15T16:25:46.591Z,83.37
2019-01-15T16:26:46.573Z,83.37
2019-01-15T16:27:46.630Z,83.47
2019-01-15T16:28:46.558Z,83.47
2019-01-15T16:29:46.536Z,83.16
2019-01-15T16:30:46.519Z,83.88
2019-01-15T16:31:46.524Z,84.19
2019-01-15T16:32:46.503Z,83.88
2019-01-15T16:33:46.491Z,84.61
2019-01-15T16:34:46.482Z,84.09
2019-01-15T16:35:46.464Z,84.71
2019-01-15T16:36:46.456Z,83.47
2019-01-15T16:37:46.628Z,83.67
2019-01-15T16:38:46.451Z,83.47
2019-01-15T16:39:46.427Z,84.19
2019-01-15T16:40:46.421Z,83.78
2019-01-15T16:41:46.413Z,84.09
2019-01-15T16:42:46.404Z,84.19
2019-01-15T16:43:46.419Z,84.71
2019-01-15T16:44:46.385Z,84.30
2019-01-15T16:45:46.356Z,83.88
2019-01-15T16:46:46.340Z,84.61
2019-01-15T16:47:46.339Z,84.50
2019-01-15T16:48:46.323Z,84.85
2019-01-15T16:49:46.312Z,84.19
2019-01-15T16:50:46.314Z,84.50
2019-01-15T16:51:46.359Z,84.64
2019-01-15T16:52:46.281Z,84.75
2019-01-15T16:53:46.281Z,84.75
2019-01-15T16:54:46.301Z,84.96
2019-01-15T16:55:46.262Z,84.81
2019-01-15T16:56:46.241Z,85.02
2019-01-15T16:57:46.228Z,84.30
2019-01-15T16:58:46.212Z,84.71
2019-01-15T16:59:46.215Z,84.61
2019-01-15T17:00:46.187Z,84.75
2019-01-15T17:01:46.192Z,84.50
2019-01-15T17:02:46.177Z,84.40
2019-01-15T17:03:46.167Z,84.19
2019-01-15T17:04:46.163Z,83.88
2019-01-15T17:05:46.164Z,84.03
2019-01-15T17:06:46.127Z,84.19
2019-01-15T17:07:46.129Z,84.61
2019-01-15T17:08:46.122Z,84.50
2019-01-15T17:09:46.091Z,83.99
2019-01-15T17:10:46.091Z,83.99
2019-01-15T17:11:46.816Z,83.78
2019-01-15T17:12:46.054Z,83.78
2019-01-15T17:13:46.047Z,84.40
2019-01-15T17:14:46.043Z,84.09
2019-01-15T17:15:46.017Z,84.09
2019-01-15T17:16:46.009Z,83.67
2019-01-15T17:17:46.016Z,83.27
2019-01-15T17:18:45.996Z,83.67
2019-01-15T17:19:46.007Z,83.58
2019-01-15T17:20:45.993Z,82.64
2019-01-15T17:21:45.966Z,83.58
2019-01-15T17:22:45.959Z,82.85
2019-01-15T17:23:46.046Z,82.75
2019-01-15T17:24:45.935Z,83.37
2019-01-15T17:25:45.908Z,82.95
2019-01-15T17:26:45.900Z,82.95
2019-01-15T17:27:45.899Z,82.55
2019-01-15T17:28:45.879Z,82.85
2019-01-15T17:29:45.874Z,82.23
2019-01-15T17:30:45.853Z,82.34
2019-01-15T17:31:45.848Z,83.12
2019-01-15T17:32:45.836Z,82.75
